Aviation Digital Data Service (ADDS)

Output produced by METARs form (1904 UTC 18 June 2019)
found at http://www.aviationweather.gov/metar/data/
 
KDWU 181856Z AUTO VRB06KT 10SM FEW022 SCT033 SCT042 24/21 A2994 RMK AO2 SLP135 T02390206
KBRY 181855Z AUTO 19005KT 10SM SCT017 SCT023 24/20 A2991 RMK AO1
KBWG 181900Z AUTO 29004KT 10SM FEW016 BKN030 OVC047 24/21 A2991 RMK AO2 LTG DSNT NE T02440211 $
KBWG 181720Z 1818/1918 20007KT P6SM VCSH BKN040 
     TEMPO 1818/1819 BKN027 
     FM190300 20004KT P6SM BKN100 
     FM190800 21004KT 5SM BR VCSH BKN018 
     FM191500 22007KT P6SM VCSH BKN023
       
KAAS 181855Z AUTO 12004KT 10SM SCT043 SCT055 25/20 A2998 RMK AO1
KDVK 181855Z AUTO 17005KT 10SM BKN021 OVC027 25/20 A2996 RMK AO2
KEKX 181855Z AUTO 16005KT 10SM SCT016 OVC050 25/21 A2992 RMK AO2 LTG DSNT SW T02510211
KFGX 181855Z AUTO 23008KT 10SM SCT017 BKN022 25/21 A2996 RMK AO2 T02450208
KFFT 181853Z AUTO 21005KT 10SM BKN022 26/21 A2991 RMK AO2 SLP122 T02610206
K27K 181855Z AUTO 22007KT 10SM BKN018 OVC025 25/20 A2995 RMK AO1
KGLW 181855Z AUTO 18009KT 150V230 10SM BKN018 BKN027 BKN037 27/21 A2992 RMK AO2 T02680206
KM21 181855Z AUTO 20006KT 10SM BKN024 BKN034 BKN045 27/21 A2990 RMK AO2 T02680207
KI35 181855Z AUTO 00000KT 10SM OVC012 23/20 A3001 RMK AO2 T02280203
KEHR 181856Z AUTO 22003KT 10SM CLR 26/22 A2989 RMK AO2 SLP117 T02610222
KJKL 181853Z AUTO 00000KT 10SM BKN006 OVC095 22/22 A2998 RMK AO2 CIG 004V011 SLP140 T02220217
KJKL 181757Z 1818/1918 VRB03KT P6SM VCSH SCT008 BKN020 
     FM182000 VRB03KT P6SM VCSH SCT025 OVC045 
     FM190800 VRB03KT P6SM VCSH BKN025 
     FM191000 VRB03KT 2SM BR VCSH BKN005 
     FM191300 VRB03KT P6SM BKN007 
     FM191600 VRB03KT P6SM SCT010 BKN025
       
KKY8 181855Z AUTO 00000KT 10SM FEW019 FEW110 26/24 A2990 RMK A01
KLEX 181854Z 23008KT 10SM FEW017 BKN100 26/19 A2994 RMK AO2 SLP128 T02560189
KLEX 181720Z 1818/1918 20007KT P6SM VCSH BKN040 
     FM190300 18006KT P6SM BKN080 
     FM190800 21006KT P6SM VCSH BKN014 
     FM191500 22007KT P6SM VCSH BKN026
       
KLOZ 181853Z AUTO 13006KT 10SM SCT014 BKN022 24/21 A2998 RMK AO2 RAE1755 SLP139 P0000 T02390206
KLOZ 181757Z 1818/1918 VRB04KT P6SM VCSH SCT008 BKN015 BKN050 
     FM182000 VRB05KT P6SM VCSH SCT015 BKN050 
     FM191000 VRB03KT 3SM BR VCSH BKN007 
     FM191500 VRB05KT P6SM BKN010 
     FM191700 23006KT P6SM BKN030
       
KLOU 181853Z 15006KT 10SM SCT025 BKN038 27/21 A2989 RMK AO2 SLP117 T02720206
KSDF 181856Z 24007KT 10SM SCT026 BKN100 BKN150 BKN250 28/20 A2989 RMK AO2 SLP117 T02780200
KSDF 181720Z 1818/1924 21007KT P6SM VCSH BKN040 
     FM190300 19004KT P6SM BKN090 
     FM190800 20004KT P6SM VCSH BKN018 
     FM191500 22006KT P6SM VCSH BKN028 
     FM191700 23008KT P6SM VCSH BKN040 
     PROB30 1920/1924 2SM TSRA BKN045CB
       
K2I0 181855Z AUTO 20004KT 10SM SCT028 BKN041 BKN049 29/21 A2989 RMK AO2 T02890207
K5M9 181855Z AUTO 20004KT 10SM SCT028 SCT039 BKN060 28/21 A2990 RMK AO2 T02780206
KM25 181855Z AUTO 00000KT 10SM SCT028 SCT033 BKN095 27/21 A2990 RMK AO2 PWINO
K1A6 181855Z AUTO 00000KT 10SM SCT014 BKN025 OVC120 24/22 A2999 RMK AO2 T02400220
KEKQ 181856Z AUTO VRB05KT 10SM BKN021 26/22 A2997 RMK AO2 SLP159 T02560217 PNO $
KIOB 181855Z AUTO 20006KT 10SM SCT014 BKN022 BKN110 23/20 A2998 RMK AO2
KCEY 181855Z AUTO 17006KT 10SM SCT024 SCT030 SCT095 28/23 A2990 RMK AO1
KOWB 181856Z 27006KT 6SM -RA BKN021 BKN070 24/21 A2989 RMK AO2 LTG DSNT NE RAE19B43 SLP121 T02440211 PNO $
KOWB 181720Z 1818/1918 22006KT P6SM VCSH BKN035 
     TEMPO 1818/1820 3SM SHRA BR BKN025 
     FM190000 VRB03KT P6SM FEW030 SCT070 
     TEMPO 1908/1911 5SM BR 
     FM191100 VRB02KT 5SM BR BKN012 
     FM191400 22006KT P6SM SCT012 BKN030
       
KPAH 181853Z 20003KT 10SM FEW029 SCT045 29/20 A2988 RMK AO2 SLP112 T02890200
KPAH 181720Z 1818/1918 VRB03KT P6SM VCSH SCT035 
     FM182300 VRB03KT P6SM FEW030 SCT080 
     FM191400 23007KT P6SM SCT030
       
KPBX 181855Z AUTO 13004KT 10SM DZ OVC007 21/21 A3000 RMK AO2 T02090209
KSME 181855Z AUTO 00000KT 10SM BKN070 OVC120 24/20 A2997 RMK AO2
KSME 181757Z 1818/1918 VRB05KT P6SM VCSH BKN008 BKN015 
     FM181900 VRB05KT P6SM VCSH SCT015 BKN050 
     FM191000 VRB03KT 3SM BR VCSH BKN007 
     FM191500 23006KT P6SM BKN010 
     FM191700 24006KT P6SM BKN025
       
K6I2 181850Z AUTO 21005KT 10SM FEW016 SCT060 SCT090 24/21 A2994 RMK AO2
KBYL 181855Z AUTO 15004KT 10SM FEW100 FEW120 24/22 A2998 RMK AO1